sensor_id;sensor_type;location;lat;lon;timestamp;temperature;humidity
2441;DHT22;1231;53.988;9.470;2022-11-14T00:01:10;11.20;81.50
2441;DHT22;1231;53.988;9.470;2022-11-14T00:03:41;11.10;81.50
2441;DHT22;1231;53.988;9.470;2022-11-14T00:06:12;11.10;81.30
2441;DHT22;1231;53.988;9.470;2022-11-14T00:08:42;11.10;81.20
2441;DHT22;1231;53.988;9.470;2022-11-14T00:11:13;11.10;81.30
2441;DHT22;1231;53.988;9.470;2022-11-14T00:13:44;11.10;81.30
2441;DHT22;1231;53.988;9.470;2022-11-14T00:16:14;11.00;81.30
2441;DHT22;1231;53.988;9.470;2022-11-14T00:18:45;11.00;81.40
2441;DHT22;1231;53.988;9.470;2022-11-14T00:21:15;11.00;81.30
2441;DHT22;1231;53.988;9.470;2022-11-14T00:23:46;11.00;81.40
2441;DHT22;1231;53.988;9.470;2022-11-14T00:26:16;11.00;81.50
2441;DHT22;1231;53.988;9.470;2022-11-14T00:28:47;11.00;81.50
2441;DHT22;1231;53.988;9.470;2022-11-14T00:31:17;11.00;81.50
2441;DHT22;1231;53.988;9.470;2022-11-14T00:33:48;11.00;81.60
2441;DHT22;1231;53.988;9.470;2022-11-14T00:36:18;11.00;81.60
2441;DHT22;1231;53.988;9.470;2022-11-14T00:38:52;11.00;81.60
2441;DHT22;1231;53.988;9.470;2022-11-14T00:41:23;11.00;81.60
2441;DHT22;1231;53.988;9.470;2022-11-14T00:43:54;11.00;81.60
2441;DHT22;1231;53.988;9.470;2022-11-14T00:46:24;11.00;81.70
2441;DHT22;1231;53.988;9.470;2022-11-14T00:48:55;11.00;81.70
2441;DHT22;1231;53.988;9.470;2022-11-14T00:51:25;10.90;81.70
2441;DHT22;1231;53.988;9.470;2022-11-14T00:53:56;10.90;81.60
2441;DHT22;1231;53.988;9.470;2022-11-14T00:56:27;10.90;81.70
2441;DHT22;1231;53.988;9.470;2022-11-14T00:58:58;11.00;81.80
2441;DHT22;1231;53.988;9.470;2022-11-14T01:01:28;11.00;81.60
2441;DHT22;1231;53.988;9.470;2022-11-14T01:03:59;11.00;81.70
2441;DHT22;1231;53.988;9.470;2022-11-14T01:06:29;11.00;81.60
2441;DHT22;1231;53.988;9.470;2022-11-14T01:09:00;10.90;81.60
2441;DHT22;1231;53.988;9.470;2022-11-14T01:11:31;10.90;81.60
2441;DHT22;1231;53.988;9.470;2022-11-14T01:14:01;10.90;81.40
2441;DHT22;1231;53.988;9.470;2022-11-14T01:16:34;10.90;81.30
2441;DHT22;1231;53.988;9.470;2022-11-14T01:19:05;10.90;81.10
2441;DHT22;1231;53.988;9.470;2022-11-14T01:21:36;10.80;80.90
2441;DHT22;1231;53.988;9.470;2022-11-14T01:24:06;10.80;81.00
2441;DHT22;1231;53.988;9.470;2022-11-14T01:26:37;10.80;81.10
2441;DHT22;1231;53.988;9.470;2022-11-14T01:29:07;10.80;81.10
2441;DHT22;1231;53.988;9.470;2022-11-14T01:31:38;10.80;81.20
2441;DHT22;1231;53.988;9.470;2022-11-14T01:34:08;10.80;81.20
2441;DHT22;1231;53.988;9.470;2022-11-14T01:36:39;10.80;81.20
2441;DHT22;1231;53.988;9.470;2022-11-14T01:39:09;10.70;81.30
2441;DHT22;1231;53.988;9.470;2022-11-14T01:41:40;10.70;81.30
2441;DHT22;1231;53.988;9.470;2022-11-14T01:44:37;10.70;81.30
2441;DHT22;1231;53.988;9.470;2022-11-14T01:47:11;10.70;81.30
2441;DHT22;1231;53.988;9.470;2022-11-14T01:49:45;10.70;81.20
2441;DHT22;1231;53.988;9.470;2022-11-14T01:52:23;10.60;81.30
2441;DHT22;1231;53.988;9.470;2022-11-14T01:54:57;10.60;81.30
2441;DHT22;1231;53.988;9.470;2022-11-14T01:57:31;10.60;81.30
2441;DHT22;1231;53.988;9.470;2022-11-14T02:00:08;10.60;81.40
2441;DHT22;1231;53.988;9.470;2022-11-14T02:02:40;10.50;81.50
2441;DHT22;1231;53.988;9.470;2022-11-14T02:05:14;10.50;81.60
2441;DHT22;1231;53.988;9.470;2022-11-14T02:07:45;10.50;81.60
2441;DHT22;1231;53.988;9.470;2022-11-14T02:10:18;10.50;81.60
2441;DHT22;1231;53.988;9.470;2022-11-14T02:12:49;10.50;81.60
2441;DHT22;1231;53.988;9.470;2022-11-14T02:15:20;10.50;81.60
2441;DHT22;1231;53.988;9.470;2022-11-14T02:17:51;10.50;81.60
2441;DHT22;1231;53.988;9.470;2022-11-14T02:20:24;10.50;81.60
2441;DHT22;1231;53.988;9.470;2022-11-14T02:22:57;10.50;81.50
2441;DHT22;1231;53.988;9.470;2022-11-14T02:25:28;10.50;81.60
2441;DHT22;1231;53.988;9.470;2022-11-14T02:27:59;10.50;81.60
2441;DHT22;1231;53.988;9.470;2022-11-14T02:30:30;10.50;81.60
2441;DHT22;1231;53.988;9.470;2022-11-14T02:33:01;10.40;81.60
2441;DHT22;1231;53.988;9.470;2022-11-14T02:35:31;10.40;81.60
2441;DHT22;1231;53.988;9.470;2022-11-14T02:38:02;10.40;81.60
2441;DHT22;1231;53.988;9.470;2022-11-14T02:40:32;10.40;81.50
2441;DHT22;1231;53.988;9.470;2022-11-14T02:43:03;10.40;81.60
2441;DHT22;1231;53.988;9.470;2022-11-14T02:45:33;10.40;81.60
2441;DHT22;1231;53.988;9.470;2022-11-14T02:48:04;10.40;81.60
2441;DHT22;1231;53.988;9.470;2022-11-14T02:50:35;10.30;81.40
2441;DHT22;1231;53.988;9.470;2022-11-14T02:53:05;10.30;81.50
2441;DHT22;1231;53.988;9.470;2022-11-14T02:55:36;10.30;81.50
2441;DHT22;1231;53.988;9.470;2022-11-14T02:58:07;10.30;81.70
2441;DHT22;1231;53.988;9.470;2022-11-14T03:00:38;10.30;81.70
2441;DHT22;1231;53.988;9.470;2022-11-14T03:03:08;10.30;81.70
2441;DHT22;1231;53.988;9.470;2022-11-14T03:05:39;10.30;81.70
2441;DHT22;1231;53.988;9.470;2022-11-14T03:08:09;10.30;81.70
2441;DHT22;1231;53.988;9.470;2022-11-14T03:10:40;10.20;81.60
2441;DHT22;1231;53.988;9.470;2022-11-14T03:13:10;10.20;81.60
2441;DHT22;1231;53.988;9.470;2022-11-14T03:15:41;10.20;81.50
2441;DHT22;1231;53.988;9.470;2022-11-14T03:18:11;10.20;81.50
2441;DHT22;1231;53.988;9.470;2022-11-14T03:20:42;10.10;81.50
2441;DHT22;1231;53.988;9.470;2022-11-14T03:23:12;10.10;81.60
2441;DHT22;1231;53.988;9.470;2022-11-14T03:25:43;10.10;81.60
2441;DHT22;1231;53.988;9.470;2022-11-14T03:28:13;10.10;81.40
2441;DHT22;1231;53.988;9.470;2022-11-14T03:30:45;10.00;81.50
2441;DHT22;1231;53.988;9.470;2022-11-14T03:33:15;10.00;81.50
2441;DHT22;1231;53.988;9.470;2022-11-14T03:35:48;10.00;81.60
2441;DHT22;1231;53.988;9.470;2022-11-14T03:38:20;10.00;81.70
2441;DHT22;1231;53.988;9.470;2022-11-14T03:40:53;10.00;81.70
2441;DHT22;1231;53.988;9.470;2022-11-14T03:43:24;10.00;81.80
2441;DHT22;1231;53.988;9.470;2022-11-14T03:45:57;10.00;81.90
2441;DHT22;1231;53.988;9.470;2022-11-14T03:48:29;10.00;81.80
2441;DHT22;1231;53.988;9.470;2022-11-14T03:51:00;10.00;81.90
2441;DHT22;1231;53.988;9.470;2022-11-14T03:53:30;10.00;81.90
2441;DHT22;1231;53.988;9.470;2022-11-14T03:56:01;10.00;81.90
2441;DHT22;1231;53.988;9.470;2022-11-14T03:58:31;10.00;81.90
2441;DHT22;1231;53.988;9.470;2022-11-14T04:01:02;10.00;81.90
2441;DHT22;1231;53.988;9.470;2022-11-14T04:03:33;10.00;81.90
2441;DHT22;1231;53.988;9.470;2022-11-14T04:06:03;10.00;81.80
2441;DHT22;1231;53.988;9.470;2022-11-14T04:08:34;10.00;81.80
2441;DHT22;1231;53.988;9.470;2022-11-14T04:11:05;10.00;81.80
2441;DHT22;1231;53.988;9.470;2022-11-14T04:13:35;10.00;81.80
2441;DHT22;1231;53.988;9.470;2022-11-14T04:16:06;10.00;81.80
2441;DHT22;1231;53.988;9.470;2022-11-14T04:18:37;10.00;81.90
2441;DHT22;1231;53.988;9.470;2022-11-14T04:21:08;10.00;81.80
2441;DHT22;1231;53.988;9.470;2022-11-14T04:23:39;10.00;81.80
2441;DHT22;1231;53.988;9.470;2022-11-14T04:26:09;10.00;81.80
2441;DHT22;1231;53.988;9.470;2022-11-14T04:28:40;10.00;81.80
2441;DHT22;1231;53.988;9.470;2022-11-14T04:31:10;9.90;81.80
2441;DHT22;1231;53.988;9.470;2022-11-14T04:33:41;10.00;81.90
2441;DHT22;1231;53.988;9.470;2022-11-14T04:36:11;9.90;81.90
2441;DHT22;1231;53.988;9.470;2022-11-14T04:38:42;9.90;81.90
2441;DHT22;1231;53.988;9.470;2022-11-14T04:41:13;9.90;81.90
2441;DHT22;1231;53.988;9.470;2022-11-14T04:43:43;9.90;81.90
2441;DHT22;1231;53.988;9.470;2022-11-14T04:46:14;9.90;81.90
2441;DHT22;1231;53.988;9.470;2022-11-14T04:48:44;9.90;81.90
2441;DHT22;1231;53.988;9.470;2022-11-14T04:51:15;9.90;81.90
2441;DHT22;1231;53.988;9.470;2022-11-14T04:53:45;9.90;81.80
2441;DHT22;1231;53.988;9.470;2022-11-14T04:56:16;9.90;81.80
2441;DHT22;1231;53.988;9.470;2022-11-14T04:58:47;9.90;81.90
2441;DHT22;1231;53.988;9.470;2022-11-14T05:01:17;9.90;81.90
2441;DHT22;1231;53.988;9.470;2022-11-14T05:03:48;9.90;81.90
2441;DHT22;1231;53.988;9.470;2022-11-14T05:06:18;9.90;81.90
2441;DHT22;1231;53.988;9.470;2022-11-14T05:08:49;9.90;81.90
2441;DHT22;1231;53.988;9.470;2022-11-14T05:11:19;9.90;82.00
2441;DHT22;1231;53.988;9.470;2022-11-14T05:13:50;9.90;82.00
2441;DHT22;1231;53.988;9.470;2022-11-14T05:16:21;9.90;82.00
2441;DHT22;1231;53.988;9.470;2022-11-14T05:18:53;9.90;82.00
2441;DHT22;1231;53.988;9.470;2022-11-14T05:21:24;9.90;81.90
2441;DHT22;1231;53.988;9.470;2022-11-14T05:23:54;9.90;82.00
2441;DHT22;1231;53.988;9.470;2022-11-14T05:26:25;9.90;82.00
2441;DHT22;1231;53.988;9.470;2022-11-14T05:28:56;9.90;82.00
2441;DHT22;1231;53.988;9.470;2022-11-14T05:31:26;9.90;82.00
2441;DHT22;1231;53.988;9.470;2022-11-14T05:33:57;9.90;82.10
2441;DHT22;1231;53.988;9.470;2022-11-14T05:36:27;9.90;82.00
2441;DHT22;1231;53.988;9.470;2022-11-14T05:38:58;9.90;82.00
2441;DHT22;1231;53.988;9.470;2022-11-14T05:41:28;9.90;82.00
2441;DHT22;1231;53.988;9.470;2022-11-14T05:43:59;9.90;82.00
2441;DHT22;1231;53.988;9.470;2022-11-14T05:46:29;9.90;82.10
2441;DHT22;1231;53.988;9.470;2022-11-14T05:49:00;9.90;82.00
2441;DHT22;1231;53.988;9.470;2022-11-14T05:51:31;9.90;82.00
2441;DHT22;1231;53.988;9.470;2022-11-14T05:54:01;9.90;82.00
2441;DHT22;1231;53.988;9.470;2022-11-14T05:56:34;9.90;82.00
2441;DHT22;1231;53.988;9.470;2022-11-14T05:59:05;9.90;81.90
2441;DHT22;1231;53.988;9.470;2022-11-14T06:01:35;9.90;81.90
2441;DHT22;1231;53.988;9.470;2022-11-14T06:04:06;9.90;82.00
2441;DHT22;1231;53.988;9.470;2022-11-14T06:06:37;9.90;82.00
2441;DHT22;1231;53.988;9.470;2022-11-14T06:09:07;9.90;82.00
2441;DHT22;1231;53.988;9.470;2022-11-14T06:11:38;9.90;82.00
2441;DHT22;1231;53.988;9.470;2022-11-14T06:14:08;9.90;82.00
2441;DHT22;1231;53.988;9.470;2022-11-14T06:16:39;9.90;82.00
2441;DHT22;1231;53.988;9.470;2022-11-14T06:19:10;9.90;82.00
2441;DHT22;1231;53.988;9.470;2022-11-14T06:21:40;9.80;82.10
2441;DHT22;1231;53.988;9.470;2022-11-14T06:24:11;9.90;82.00
2441;DHT22;1231;53.988;9.470;2022-11-14T06:26:41;9.90;82.10
2441;DHT22;1231;53.988;9.470;2022-11-14T06:29:12;9.80;82.10
2441;DHT22;1231;53.988;9.470;2022-11-14T06:31:42;9.80;81.90
2441;DHT22;1231;53.988;9.470;2022-11-14T06:34:13;9.80;81.90
2441;DHT22;1231;53.988;9.470;2022-11-14T06:36:43;9.80;81.90
2441;DHT22;1231;53.988;9.470;2022-11-14T06:39:14;9.80;81.80
2441;DHT22;1231;53.988;9.470;2022-11-14T06:41:45;9.80;81.80
2441;DHT22;1231;53.988;9.470;2022-11-14T06:44:15;9.80;81.70
2441;DHT22;1231;53.988;9.470;2022-11-14T06:46:47;9.80;81.50
2441;DHT22;1231;53.988;9.470;2022-11-14T06:49:17;9.70;81.50
2441;DHT22;1231;53.988;9.470;2022-11-14T06:51:48;9.70;81.60
2441;DHT22;1231;53.988;9.470;2022-11-14T06:54:18;9.70;81.60
2441;DHT22;1231;53.988;9.470;2022-11-14T06:56:49;9.70;81.60
2441;DHT22;1231;53.988;9.470;2022-11-14T06:59:19;9.70;81.70
2441;DHT22;1231;53.988;9.470;2022-11-14T07:01:50;9.70;81.80
2441;DHT22;1231;53.988;9.470;2022-11-14T07:04:21;9.80;81.80
2441;DHT22;1231;53.988;9.470;2022-11-14T07:06:51;9.80;81.90
2441;DHT22;1231;53.988;9.470;2022-11-14T07:09:22;9.80;81.90
2441;DHT22;1231;53.988;9.470;2022-11-14T07:11:52;9.80;81.80
2441;DHT22;1231;53.988;9.470;2022-11-14T07:14:23;9.80;81.70
2441;DHT22;1231;53.988;9.470;2022-11-14T07:16:53;9.80;81.80
2441;DHT22;1231;53.988;9.470;2022-11-14T07:19:24;9.80;81.80
2441;DHT22;1231;53.988;9.470;2022-11-14T07:21:54;9.90;81.80
2441;DHT22;1231;53.988;9.470;2022-11-14T07:24:25;9.80;81.70
2441;DHT22;1231;53.988;9.470;2022-11-14T07:26:55;9.90;81.70
2441;DHT22;1231;53.988;9.470;2022-11-14T07:29:26;9.90;81.70
2441;DHT22;1231;53.988;9.470;2022-11-14T07:31:56;9.90;81.70
2441;DHT22;1231;53.988;9.470;2022-11-14T07:34:27;9.90;81.70
2441;DHT22;1231;53.988;9.470;2022-11-14T07:36:58;9.90;81.60
2441;DHT22;1231;53.988;9.470;2022-11-14T07:39:28;9.90;81.60
2441;DHT22;1231;53.988;9.470;2022-11-14T07:41:59;9.90;81.60
2441;DHT22;1231;53.988;9.470;2022-11-14T07:44:29;9.90;81.50
2441;DHT22;1231;53.988;9.470;2022-11-14T07:47:00;9.90;81.40
2441;DHT22;1231;53.988;9.470;2022-11-14T07:49:30;9.90;81.30
2441;DHT22;1231;53.988;9.470;2022-11-14T07:52:01;9.90;81.30
2441;DHT22;1231;53.988;9.470;2022-11-14T07:54:31;9.90;81.20
2441;DHT22;1231;53.988;9.470;2022-11-14T07:57:02;9.90;81.10
2441;DHT22;1231;53.988;9.470;2022-11-14T07:59:33;9.90;81.10
2441;DHT22;1231;53.988;9.470;2022-11-14T08:02:03;9.90;81.20
2441;DHT22;1231;53.988;9.470;2022-11-14T08:04:34;9.90;81.20
2441;DHT22;1231;53.988;9.470;2022-11-14T08:07:04;10.00;81.20
2441;DHT22;1231;53.988;9.470;2022-11-14T08:09:35;9.90;81.10
2441;DHT22;1231;53.988;9.470;2022-11-14T08:12:05;9.90;81.00
2441;DHT22;1231;53.988;9.470;2022-11-14T08:14:36;10.00;81.10
2441;DHT22;1231;53.988;9.470;2022-11-14T08:17:07;10.00;81.10
2441;DHT22;1231;53.988;9.470;2022-11-14T08:19:37;10.10;81.10
2441;DHT22;1231;53.988;9.470;2022-11-14T08:22:08;10.10;81.10
2441;DHT22;1231;53.988;9.470;2022-11-14T08:24:38;10.10;81.00
2441;DHT22;1231;53.988;9.470;2022-11-14T08:27:09;10.10;80.90
2441;DHT22;1231;53.988;9.470;2022-11-14T08:29:39;10.10;80.90
2441;DHT22;1231;53.988;9.470;2022-11-14T08:32:10;10.10;80.90
2441;DHT22;1231;53.988;9.470;2022-11-14T08:34:40;10.10;80.60
2441;DHT22;1231;53.988;9.470;2022-11-14T08:37:11;10.10;80.50
2441;DHT22;1231;53.988;9.470;2022-11-14T08:39:42;10.10;80.40
2441;DHT22;1231;53.988;9.470;2022-11-14T08:42:12;10.10;80.00
2441;DHT22;1231;53.988;9.470;2022-11-14T08:44:43;10.10;79.90
2441;DHT22;1231;53.988;9.470;2022-11-14T08:47:13;10.10;79.80
2441;DHT22;1231;53.988;9.470;2022-11-14T08:49:45;10.00;79.80
2441;DHT22;1231;53.988;9.470;2022-11-14T08:52:15;10.00;79.70
2441;DHT22;1231;53.988;9.470;2022-11-14T08:54:46;10.00;79.70
2441;DHT22;1231;53.988;9.470;2022-11-14T08:57:16;10.00;79.70
2441;DHT22;1231;53.988;9.470;2022-11-14T08:59:47;10.00;79.60
2441;DHT22;1231;53.988;9.470;2022-11-14T09:02:17;10.00;79.70
2441;DHT22;1231;53.988;9.470;2022-11-14T09:04:48;10.10;79.70
2441;DHT22;1231;53.988;9.470;2022-11-14T09:07:19;10.10;79.60
2441;DHT22;1231;53.988;9.470;2022-11-14T09:09:49;10.10;79.50
2441;DHT22;1231;53.988;9.470;2022-11-14T09:12:20;10.10;79.40
2441;DHT22;1231;53.988;9.470;2022-11-14T09:14:50;10.10;79.30
2441;DHT22;1231;53.988;9.470;2022-11-14T09:17:21;10.10;79.20
2441;DHT22;1231;53.988;9.470;2022-11-14T09:19:51;10.10;79.20
2441;DHT22;1231;53.988;9.470;2022-11-14T09:22:22;10.10;79.10
2441;DHT22;1231;53.988;9.470;2022-11-14T09:24:52;10.10;79.20
2441;DHT22;1231;53.988;9.470;2022-11-14T09:27:25;10.20;79.30
2441;DHT22;1231;53.988;9.470;2022-11-14T09:29:56;10.20;79.30
2441;DHT22;1231;53.988;9.470;2022-11-14T09:32:27;10.20;79.20
2441;DHT22;1231;53.988;9.470;2022-11-14T09:34:57;10.30;79.10
2441;DHT22;1231;53.988;9.470;2022-11-14T09:37:28;10.30;79.10
2441;DHT22;1231;53.988;9.470;2022-11-14T09:39:59;10.30;78.90
2441;DHT22;1231;53.988;9.470;2022-11-14T09:42:46;10.30;78.90
2441;DHT22;1231;53.988;9.470;2022-11-14T09:45:22;10.30;78.90
2441;DHT22;1231;53.988;9.470;2022-11-14T09:48:12;10.30;78.80
2441;DHT22;1231;53.988;9.470;2022-11-14T09:50:49;10.30;78.80
2441;DHT22;1231;53.988;9.470;2022-11-14T09:53:41;10.30;78.60
2441;DHT22;1231;53.988;9.470;2022-11-14T09:56:21;10.30;78.70
2441;DHT22;1231;53.988;9.470;2022-11-14T09:58:54;10.30;78.70
2441;DHT22;1231;53.988;9.470;2022-11-14T10:02:00;10.30;78.70
2441;DHT22;1231;53.988;9.470;2022-11-14T10:04:42;10.40;78.60
2441;DHT22;1231;53.988;9.470;2022-11-14T10:15:30;10.40;77.80
2441;DHT22;1231;53.988;9.470;2022-11-14T10:18:11;10.30;78.00
2441;DHT22;1231;53.988;9.470;2022-11-14T10:20:53;10.30;78.00
2441;DHT22;1231;53.988;9.470;2022-11-14T10:26:28;10.30;78.10
2441;DHT22;1231;53.988;9.470;2022-11-14T10:29:32;10.30;78.10
2441;DHT22;1231;53.988;9.470;2022-11-14T10:40:42;10.10;78.00
2441;DHT22;1231;53.988;9.470;2022-11-14T10:43:44;10.00;78.10
2441;DHT22;1231;53.988;9.470;2022-11-14T10:46:22;10.10;78.30
2441;DHT22;1231;53.988;9.470;2022-11-14T10:48:54;10.10;78.30
2441;DHT22;1231;53.988;9.470;2022-11-14T10:51:32;10.10;78.20
2441;DHT22;1231;53.988;9.470;2022-11-14T10:54:13;10.20;78.40
2441;DHT22;1231;53.988;9.470;2022-11-14T10:56:49;10.20;78.60
2441;DHT22;1231;53.988;9.470;2022-11-14T10:59:20;10.20;78.30
2441;DHT22;1231;53.988;9.470;2022-11-14T11:04:34;10.30;78.30
2441;DHT22;1231;53.988;9.470;2022-11-14T11:09:39;10.30;78.10
2441;DHT22;1231;53.988;9.470;2022-11-14T11:12:43;10.30;78.10
2441;DHT22;1231;53.988;9.470;2022-11-14T11:15:29;10.40;78.40
2441;DHT22;1231;53.988;9.470;2022-11-14T11:18:13;10.40;78.50
2441;DHT22;1231;53.988;9.470;2022-11-14T11:21:11;10.50;78.10
2441;DHT22;1231;53.988;9.470;2022-11-14T11:26:20;10.50;78.20
2441;DHT22;1231;53.988;9.470;2022-11-14T11:31:53;10.60;78.20
2441;DHT22;1231;53.988;9.470;2022-11-14T11:34:27;10.60;77.60
2441;DHT22;1231;53.988;9.470;2022-11-14T11:37:09;10.70;77.60
2441;DHT22;1231;53.988;9.470;2022-11-14T11:39:52;10.60;77.60
2441;DHT22;1231;53.988;9.470;2022-11-14T11:42:30;10.70;77.60
2441;DHT22;1231;53.988;9.470;2022-11-14T11:45:09;10.70;77.40
2441;DHT22;1231;53.988;9.470;2022-11-14T11:47:57;10.70;77.50
2441;DHT22;1231;53.988;9.470;2022-11-14T11:50:29;10.70;77.70
2441;DHT22;1231;53.988;9.470;2022-11-14T11:53:25;10.80;77.70
2441;DHT22;1231;53.988;9.470;2022-11-14T11:56:03;10.90;77.50
2441;DHT22;1231;53.988;9.470;2022-11-14T11:58:45;10.90;77.30
2441;DHT22;1231;53.988;9.470;2022-11-14T12:01:17;11.00;77.20
2441;DHT22;1231;53.988;9.470;2022-11-14T12:03:51;11.00;77.00
2441;DHT22;1231;53.988;9.470;2022-11-14T12:06:24;11.10;77.10
2441;DHT22;1231;53.988;9.470;2022-11-14T12:09:05;11.10;76.90
2441;DHT22;1231;53.988;9.470;2022-11-14T12:11:39;11.20;76.80
2441;DHT22;1231;53.988;9.470;2022-11-14T12:17:41;11.20;76.70
2441;DHT22;1231;53.988;9.470;2022-11-14T12:26:08;11.30;76.70
2441;DHT22;1231;53.988;9.470;2022-11-14T12:31:54;11.40;76.70
2441;DHT22;1231;53.988;9.470;2022-11-14T12:34:31;11.50;76.50
2441;DHT22;1231;53.988;9.470;2022-11-14T12:37:14;11.50;76.20
2441;DHT22;1231;53.988;9.470;2022-11-14T12:40:04;11.50;76.00
2441;DHT22;1231;53.988;9.470;2022-11-14T12:42:35;11.50;76.10
2441;DHT22;1231;53.988;9.470;2022-11-14T12:48:29;11.30;75.60
2441;DHT22;1231;53.988;9.470;2022-11-14T12:51:02;11.20;75.80
2441;DHT22;1231;53.988;9.470;2022-11-14T12:53:37;11.10;76.20
2441;DHT22;1231;53.988;9.470;2022-11-14T13:05:29;11.00;77.00
2441;DHT22;1231;53.988;9.470;2022-11-14T13:10:48;11.20;77.20
2441;DHT22;1231;53.988;9.470;2022-11-14T13:13:18;11.20;77.10
2441;DHT22;1231;53.988;9.470;2022-11-14T13:16:24;11.20;77.00
2441;DHT22;1231;53.988;9.470;2022-11-14T13:19:19;11.30;77.10
2441;DHT22;1231;53.988;9.470;2022-11-14T13:27:35;11.40;76.90
2441;DHT22;1231;53.988;9.470;2022-11-14T13:30:06;11.50;76.80
2441;DHT22;1231;53.988;9.470;2022-11-14T13:35:22;11.60;76.70
2441;DHT22;1231;53.988;9.470;2022-11-14T13:52:01;11.60;76.60
2441;DHT22;1231;53.988;9.470;2022-11-14T13:54:31;11.60;76.60
2441;DHT22;1231;53.988;9.470;2022-11-14T14:00:15;11.60;76.70
2441;DHT22;1231;53.988;9.470;2022-11-14T14:08:32;11.60;76.80
2441;DHT22;1231;53.988;9.470;2022-11-14T14:11:34;11.60;76.80
2441;DHT22;1231;53.988;9.470;2022-11-14T14:14:56;11.50;76.90
2441;DHT22;1231;53.988;9.470;2022-11-14T14:23:33;11.50;77.00
2441;DHT22;1231;53.988;9.470;2022-11-14T14:31:40;11.30;77.30
2441;DHT22;1231;53.988;9.470;2022-11-14T14:34:28;11.30;77.40
2441;DHT22;1231;53.988;9.470;2022-11-14T14:36:58;11.30;77.50
2441;DHT22;1231;53.988;9.470;2022-11-14T14:39:29;11.20;77.60
2441;DHT22;1231;53.988;9.470;2022-11-14T14:41:59;11.20;77.60
2441;DHT22;1231;53.988;9.470;2022-11-14T14:44:36;11.10;77.80
2441;DHT22;1231;53.988;9.470;2022-11-14T14:49:59;11.00;78.10
2441;DHT22;1231;53.988;9.470;2022-11-14T14:52:35;11.00;78.10
2441;DHT22;1231;53.988;9.470;2022-11-14T14:55:16;10.90;78.30
2441;DHT22;1231;53.988;9.470;2022-11-14T14:57:47;10.90;78.50
2441;DHT22;1231;53.988;9.470;2022-11-14T15:00:23;10.80;78.60
2441;DHT22;1231;53.988;9.470;2022-11-14T15:02:55;10.70;78.70
2441;DHT22;1231;53.988;9.470;2022-11-14T15:05:27;10.70;78.80
2441;DHT22;1231;53.988;9.470;2022-11-14T15:07:59;10.60;78.90
2441;DHT22;1231;53.988;9.470;2022-11-14T15:10:30;10.50;79.00
2441;DHT22;1231;53.988;9.470;2022-11-14T15:13:01;10.50;79.10
2441;DHT22;1231;53.988;9.470;2022-11-14T15:15:33;10.30;79.20
2441;DHT22;1231;53.988;9.470;2022-11-14T15:18:06;10.20;79.30
2441;DHT22;1231;53.988;9.470;2022-11-14T15:20:36;10.10;79.30
2441;DHT22;1231;53.988;9.470;2022-11-14T15:25:38;9.90;79.60
2441;DHT22;1231;53.988;9.470;2022-11-14T15:28:15;9.80;79.70
2441;DHT22;1231;53.988;9.470;2022-11-14T15:31:00;9.70;79.80
2441;DHT22;1231;53.988;9.470;2022-11-14T15:33:33;9.60;80.00
2441;DHT22;1231;53.988;9.470;2022-11-14T15:36:12;9.50;80.20
2441;DHT22;1231;53.988;9.470;2022-11-14T15:39:04;9.40;80.50
2441;DHT22;1231;53.988;9.470;2022-11-14T15:42:17;9.30;80.70
2441;DHT22;1231;53.988;9.470;2022-11-14T15:44:49;9.20;81.10
2441;DHT22;1231;53.988;9.470;2022-11-14T15:47:32;9.20;81.30
2441;DHT22;1231;53.988;9.470;2022-11-14T15:52:48;9.00;81.70
2441;DHT22;1231;53.988;9.470;2022-11-14T15:55:21;9.00;81.90
2441;DHT22;1231;53.988;9.470;2022-11-14T15:57:52;8.90;82.00
2441;DHT22;1231;53.988;9.470;2022-11-14T16:00:23;8.80;82.00
2441;DHT22;1231;53.988;9.470;2022-11-14T16:02:55;8.80;82.10
2441;DHT22;1231;53.988;9.470;2022-11-14T16:05:30;8.70;82.20
2441;DHT22;1231;53.988;9.470;2022-11-14T16:08:02;8.70;82.30
2441;DHT22;1231;53.988;9.470;2022-11-14T16:10:32;8.60;82.40
2441;DHT22;1231;53.988;9.470;2022-11-14T16:13:03;8.60;82.70
2441;DHT22;1231;53.988;9.470;2022-11-14T16:15:33;8.50;82.80
2441;DHT22;1231;53.988;9.470;2022-11-14T16:18:04;8.50;82.90
2441;DHT22;1231;53.988;9.470;2022-11-14T16:20:35;8.50;83.10
2441;DHT22;1231;53.988;9.470;2022-11-14T16:23:11;8.40;83.30
2441;DHT22;1231;53.988;9.470;2022-11-14T16:25:43;8.40;83.60
2441;DHT22;1231;53.988;9.470;2022-11-14T16:28:13;8.50;83.90
2441;DHT22;1231;53.988;9.470;2022-11-14T16:30:44;8.50;84.10
2441;DHT22;1231;53.988;9.470;2022-11-14T16:33:15;8.50;84.20
2441;DHT22;1231;53.988;9.470;2022-11-14T16:35:45;8.50;84.40
2441;DHT22;1231;53.988;9.470;2022-11-14T16:38:16;8.50;84.50
2441;DHT22;1231;53.988;9.470;2022-11-14T16:40:46;8.50;84.60
2441;DHT22;1231;53.988;9.470;2022-11-14T16:43:17;8.50;84.70
2441;DHT22;1231;53.988;9.470;2022-11-14T16:45:48;8.50;84.70
2441;DHT22;1231;53.988;9.470;2022-11-14T16:48:18;8.50;84.70
2441;DHT22;1231;53.988;9.470;2022-11-14T16:50:49;8.50;84.70
2441;DHT22;1231;53.988;9.470;2022-11-14T16:53:19;8.50;85.00
2441;DHT22;1231;53.988;9.470;2022-11-14T16:55:50;8.50;85.10
2441;DHT22;1231;53.988;9.470;2022-11-14T16:58:20;8.50;85.20
2441;DHT22;1231;53.988;9.470;2022-11-14T17:00:51;8.50;85.30
2441;DHT22;1231;53.988;9.470;2022-11-14T17:03:22;8.50;85.30
2441;DHT22;1231;53.988;9.470;2022-11-14T17:05:52;8.50;85.20
2441;DHT22;1231;53.988;9.470;2022-11-14T17:08:23;8.50;85.30
2441;DHT22;1231;53.988;9.470;2022-11-14T17:10:53;8.50;85.30
2441;DHT22;1231;53.988;9.470;2022-11-14T17:13:24;8.50;85.40
2441;DHT22;1231;53.988;9.470;2022-11-14T17:15:59;8.50;85.50
2441;DHT22;1231;53.988;9.470;2022-11-14T17:18:30;8.50;85.40
2441;DHT22;1231;53.988;9.470;2022-11-14T17:21:05;8.50;85.30
2441;DHT22;1231;53.988;9.470;2022-11-14T17:23:36;8.50;85.30
2441;DHT22;1231;53.988;9.470;2022-11-14T17:26:10;8.40;85.30
2441;DHT22;1231;53.988;9.470;2022-11-14T17:28:41;8.40;85.40
2441;DHT22;1231;53.988;9.470;2022-11-14T17:31:13;8.40;85.40
2441;DHT22;1231;53.988;9.470;2022-11-14T17:33:52;8.40;85.40
2441;DHT22;1231;53.988;9.470;2022-11-14T17:36:25;8.40;85.50
2441;DHT22;1231;53.988;9.470;2022-11-14T17:38:56;8.40;85.50
2441;DHT22;1231;53.988;9.470;2022-11-14T17:41:27;8.40;85.60
2441;DHT22;1231;53.988;9.470;2022-11-14T17:43:58;8.40;85.60
2441;DHT22;1231;53.988;9.470;2022-11-14T17:46:31;8.40;85.50
2441;DHT22;1231;53.988;9.470;2022-11-14T17:49:02;8.40;85.50
2441;DHT22;1231;53.988;9.470;2022-11-14T17:51:32;8.40;85.60
2441;DHT22;1231;53.988;9.470;2022-11-14T17:54:03;8.30;85.60
2441;DHT22;1231;53.988;9.470;2022-11-14T17:56:34;8.30;85.70
2441;DHT22;1231;53.988;9.470;2022-11-14T17:59:04;8.30;85.70
2441;DHT22;1231;53.988;9.470;2022-11-14T18:01:35;8.30;85.70
2441;DHT22;1231;53.988;9.470;2022-11-14T18:04:05;8.30;85.70
2441;DHT22;1231;53.988;9.470;2022-11-14T18:06:36;8.30;85.70
2441;DHT22;1231;53.988;9.470;2022-11-14T18:09:06;8.30;85.70
2441;DHT22;1231;53.988;9.470;2022-11-14T18:11:37;8.30;85.70
2441;DHT22;1231;53.988;9.470;2022-11-14T18:14:07;8.20;85.80
2441;DHT22;1231;53.988;9.470;2022-11-14T18:16:38;8.30;85.80
2441;DHT22;1231;53.988;9.470;2022-11-14T18:19:09;8.20;85.90
2441;DHT22;1231;53.988;9.470;2022-11-14T18:21:39;8.20;85.90
2441;DHT22;1231;53.988;9.470;2022-11-14T18:24:12;8.20;85.90
2441;DHT22;1231;53.988;9.470;2022-11-14T18:26:43;8.20;85.90
2441;DHT22;1231;53.988;9.470;2022-11-14T18:29:14;8.20;86.10
2441;DHT22;1231;53.988;9.470;2022-11-14T18:31:45;8.20;86.20
2441;DHT22;1231;53.988;9.470;2022-11-14T18:34:15;8.20;86.30